Terminal Aerodrome Forecast
Issued by NWS

Home | Current Version | Previous Version | Text Only | Print | Product List | Glossary Off
Versions: 1 2 3 4 5 6 7 8 9 10 11 12 13 14 15

000
FTUS43 KICT 280520
TAFRSL
TAF
KRSL 280520Z 2806/2906 17013G19KT P6SM SCT100 SCT250
     FM281500 21015G22KT P6SM SCT100 SCT250
     FM282200 34014KT P6SM VCTS SCT070CB=

USA.gov is the U.S. government's official web portal to all federal, state and local government web resources and services.